• Join FlightAware (Why Join?)
  • Login
  • US Flag 
06:47PM EDT


 

Airport Tracker/Info


-or-


 

Live Flight TrackerFlight Track Log ✈ ASQ4406 ✈ 18-May-2013 ✈ KMCI - KIAH

Flight Track Log - Related Links

Times and Time Zones

All times are in EDT time to prevent confusion due to time zone crossing. See the ASQ4406 flight status page for this flight to view local times or setup timezone preferences in your user account.

Time Position Orientation Groundspeed Altitude Reporting Facility
EDT Latitude Longitude Course Direction KTS MPH feet Rate Location/Type
04:47PM 39.2833 -94.7333 199° South 162 186 1,800  Level Kansas City TRACON
04:47PM 39.2500 -94.7500 201° Southwest 180 207 3,000 1,560 Climbing Kansas City TRACON
04:48PM 39.2389 -94.7494 178° South 183 211 3,500 2,280 Climbing Kansas City Center
04:49PM 39.0501 -94.8055 195° South  Level FlightAware Approximate
04:49PM 39.1683 -94.7756 196° South 234 269 6,300  Level Kansas City Center
04:50PM 38.9640 -94.8343 195° South  Level FlightAware Approximate
04:50PM 39.1056 -94.7978 195° South 242 278 8,400  Level Kansas City Center
04:51PM 38.8788 -94.8669 199° South  Level FlightAware Approximate
04:51PM 39.0364 -94.8233 196° South 269 310 10,100  Level Kansas City Center
04:52PM 38.7948 -94.9042 199° South  Level FlightAware Approximate
04:52PM 38.9486 -94.8542 195° South 290 334 11,900  Level Kansas City Center
04:53PM 38.8650 -94.8842 196° South 320 368 13,300 1,200 Climbing Kansas City Center
04:54PM 38.7592 -94.9219 196° South 352 405 14,400 960 Climbing Kansas City Center
04:55PM 38.6631 -94.9544 195° South 370 426 15,400 900 Climbing Kansas City Center
04:56PM 38.5633 -94.9917 196° South 387 445 16,300 960 Climbing Kansas City Center
04:57PM 38.4458 -95.0322 195° South 391 450 17,400 960 Climbing Kansas City Center
04:58PM 38.3428 -95.0694 196° South 398 458 18,400 960 Climbing Kansas City Center
04:59PM 38.2211 -95.1111 195° South 402 463 19,500 2,280 Climbing Kansas City Center
05:00PM 38.1217 -95.1458 195° South 389 448 23,200 2,580 Climbing Kansas City Center
05:01PM 38.0217 -95.1803 195° South 340 391 24,900 1,260 Climbing Kansas City Center
05:02PM 37.9269 -95.2103 194° South 347 399 25,800 900 Climbing Kansas City Center
05:03PM 37.8278 -95.2419 194° South 361 415 26,800 960 Climbing Kansas City Center
05:04PM 37.7275 -95.2783 196° South 370 426 27,800 960 Climbing Kansas City Center
05:05PM 37.6258 -95.3122 195° South 375 432 28,800 960 Climbing Kansas City Center
05:06PM 37.5244 -95.3461 195° South 376 433 29,800 960 Climbing Kansas City Center
05:07PM 37.4217 -95.3803 195° South 380 437 30,800 1,020 Climbing Kansas City Center
05:08PM 37.2964 -95.4225 195° South 386 444 31,900 960 Climbing Kansas City Center
05:09PM 37.1914 -95.4569 195° South 388 447 32,900 960 Climbing Kansas City Center
05:10PM 37.0872 -95.4922 195° South 387 445 33,900 960 Climbing Kansas City Center
05:11PM 36.9822 -95.5278 195° South 389 448 34,900 480 Climbing Kansas City Center
05:12PM 36.8778 -95.5633 195° South 389 448 35,000  Climbing Kansas City Center
05:13PM 36.7675 -95.6008 195° South 404 465 35,000 240 Level Kansas City Center
05:14PM 36.6336 -95.6456 195° South 415 478 35,600 480 Climbing Kansas City Center
05:15PM 36.5308 -95.6797 195° South 413 475 36,000 180 Climbing Kansas City Center
05:16PM 36.4181 -95.7158 194° South 416 479 36,000  Level Kansas City Center
05:17PM 36.2989 -95.7556 195° South 425 489 36,000  Level Kansas City Center
05:19PM 36.1878 -95.7911 194° South 418 481 36,000  Level Kansas City Center
05:20PM 36.0778 -95.8294 196° South 413 475 36,000  Level Kansas City Center
05:21PM 35.9472 -95.8744 196° South 408 470 36,000  Level Kansas City Center
05:22PM 35.8389 -95.9122 196° South 406 467 36,000  Level Kansas City Center
05:23PM 35.7306 -95.9492 195° South 404 465 36,000  Level Kansas City Center
05:24PM 35.6222 -95.9869 196° South 404 465 36,000  Level Kansas City Center
05:24PM 35.5319 -96.0183 196° South 414 476 36,000  Level Fort Worth Center
05:25PM 35.4261 -96.0558 196° South 408 470 36,000  Level Fort Worth Center
05:26PM 35.3181 -96.0931 196° South 408 470 36,000  Level Fort Worth Center
05:27PM 35.2100 -96.1303 196° South 408 470 36,000  Level Fort Worth Center
05:28PM 35.0997 -96.1675 195° South 408 470 36,000  Level Fort Worth Center
05:29PM 34.9917 -96.2047 196° South 408 470 36,000  Level Fort Worth Center
05:30PM 34.8856 -96.2417 196° South 408 470 36,000  Level Fort Worth Center
05:31PM 34.7775 -96.2783 196° South 408 470 36,000  Level Fort Worth Center
05:32PM 34.6714 -96.3153 196° South 403 464 36,000  Level Fort Worth Center
05:33PM 34.5653 -96.3519 196° South 403 464 36,000  Level Fort Worth Center
05:34PM 34.4550 -96.3858 194° South 403 464 36,000  Level Fort Worth Center
05:35PM 34.3511 -96.4250 197° South 398 458 36,000  Level Fort Worth Center
05:36PM 34.2447 -96.4589 195° South 398 458 36,000  Level Fort Worth Center
05:37PM 34.1367 -96.4975 196° South 398 458 36,000  Level Fort Worth Center
05:38PM 34.0347 -96.5314 195° South 392 451 36,000  Level Fort Worth Center
05:39PM 33.9283 -96.5650 195° South 392 451 36,000  Level Fort Worth Center
05:40PM 33.8222 -96.6008 196° South 397 457 36,000  Level Fort Worth Center
05:41PM 33.7139 -96.6344 194° South 397 457 36,000  Level Fort Worth Center
05:42PM 33.6078 -96.6703 196° South 397 457 36,000  Level Fort Worth Center
05:43PM 33.5014 -96.7061 196° South 397 457 36,000  Level Fort Worth Center
05:44PM 33.3931 -96.7392 194° South 397 457 36,000  Level Fort Worth Center
05:45PM 33.2869 -96.7747 196° South 397 457 36,000  Level Fort Worth Center
05:46PM 33.1825 -96.8078 195° South 397 457 36,000  Level Fort Worth Center
05:47PM 33.0764 -96.8433 196° South 397 457 36,000  Level Fort Worth Center
05:48PM 32.9597 -96.8811 195° South 397 457 36,000  Level Fort Worth Center
05:49PM 32.8594 -96.8942 186° South 397 457 36,000  Level Fort Worth Center
05:50PM 32.7467 -96.8600 166° South 411 473 36,000 -300 Level Fort Worth Center
05:51PM 32.6317 -96.8289 167° South 416 479 35,500 -780 Descending Fort Worth Center
05:52PM 32.5167 -96.7975 167° South 416 479 34,500 -1,020 Descending Fort Worth Center
05:53PM 32.4017 -96.7639 166° South 422 486 33,500 -960 Descending Fort Worth Center
05:54PM 32.2847 -96.7328 167° South 427 491 32,600 -900 Descending Fort Worth Center
05:55PM 32.1675 -96.6992 166° South 432 497 31,700 -960 Descending Fort Worth Center
05:56PM 32.0503 -96.6658 166° South 432 497 30,700 -1,020 Descending Fort Worth Center
05:57PM 31.9186 -96.6300 167° South 432 497 29,700 -900 Descending Fort Worth Center
05:58PM 31.7972 -96.5919 165° South 439 505 29,000 -240 Descending Fort Worth Center
06:01PM 31.5289 -96.5169 167° South 451 519 29,000  Level Houston Center
06:02PM 31.4094 -96.4600 158° South 457 526 29,000  Level Houston Center
06:03PM 31.2922 -96.3867 152° Southeast 468 539 29,000 -1,020 Level Houston Center
06:04PM 31.1778 -96.3136 151° Southeast 463 533 27,000 -2,520 Descending Houston Center
06:05PM 31.0639 -96.2417 152° Southeast 461 531 23,800 -3,060 Descending Houston Center
06:06PM 30.9536 -96.1736 152° Southeast 446 513 20,800 -2,760 Descending Houston Center
06:07PM 30.8525 -96.1106 152° Southeast 414 476 18,200 -2,400 Descending Houston Center
06:08PM 30.7517 -96.0486 152° Southeast 410 472 15,900 -2,280 Descending Houston Center
06:09PM 30.6464 -95.9814 151° Southeast 384 442 13,600 -2,100 Descending Houston Center
06:10PM 30.5578 -95.9272 152° Southeast 363 418 11,700 -2,040 Descending Houston Center
06:10PM 30.5067 -95.8981 154° Southeast 356 410 10,500 -1,620 Descending Houston Center
06:11PM 30.4694 -95.8828 161° South 350 403 10,100 -420 Descending Houston Center
06:12PM 30.4119 -95.8703 169° South 330 380 10,100  Level Houston Center
06:12PM 30.3800 -95.8603 165° South 331 381 10,100  Level Houston Center
06:13PM 30.3089 -95.8433 168° South 339 390 10,100  Level Houston Center
06:13PM 30.2886 -95.8386 169° South 335 386 10,100 -780 Level Houston Center
06:14PM 30.2439 -95.8219 162° South 254 292 9,400 -1,680 Descending Houston Center
06:14PM 30.2122 -95.7953 144° Southeast 265 305 8,400 -1,860 Descending Houston Center
06:15PM 30.1847 -95.7683 140° Southeast 260 299 7,500 -1,860 Descending Houston Center
06:15PM 30.1600 -95.7364 132° Southeast 262 302 6,500 -1,920 Descending Houston Center
06:16PM 30.1322 -95.6972 129° Southeast 260 299 5,400 -1,800 Descending Houston Center
06:16PM 30.1142 -95.6731 131° Southeast 258 297 4,700 -1,800 Descending Houston Center
06:17PM 30.0847 -95.6353 132° Southeast 257 296 3,600 -1,560 Descending Houston Center
06:17PM 30.0658 -95.6119 133° Southeast 258 297 3,100 -600 Descending Houston Center
06:18PM 30.0403 -95.5850 138° Southeast 236 272 3,100  Level Houston Center
06:18PM 30.0208 -95.5603 132° Southeast 245 282 3,100  Level Houston Center
06:19PM 30.0036 -95.5267 121° Southeast 236 272 3,100  Level Houston Center